Pajares, Asturias

latitud = 42° 58' 37''N | longitud = 005° 46' 41''W
1460 metros sobre el nivel del mar | datos mensuales

Fecha, hora, temperatura, viento dirección y velocidad, humedad y presión.

  • 21-06-2018 22:00:00 | 12.80°C | Noroeste |4.00 km/h | 93.00% | 0.00 hPa
  • 21-06-2018 21:00:00 | 12.90°C | Noroeste |5.00 km/h | 93.00% | 0.00 hPa
  • 21-06-2018 20:00:00 | 13.40°C | Noroeste |3.00 km/h | 93.00% | 0.00 hPa
  • 21-06-2018 19:00:00 | 13.80°C | Noroeste |4.00 km/h | 93.00% | 0.00 hPa
  • 21-06-2018 18:00:00 | 14.00°C | Noroeste |6.00 km/h | 92.00% | 0.00 hPa
  • 21-06-2018 17:00:00 | 15.30°C | Noroeste |4.00 km/h | 90.00% | 0.00 hPa
  • 21-06-2018 16:00:00 | 15.30°C | Noroeste |7.00 km/h | 88.00% | 0.00 hPa
  • 21-06-2018 15:00:00 | 16.70°C | Noroeste |6.00 km/h | 79.00% | 0.00 hPa
  • 21-06-2018 14:00:00 | 17.70°C | Noroeste |3.00 km/h | 75.00% | 0.00 hPa
  • 21-06-2018 13:00:00 | 16.30°C | Noroeste |4.00 km/h | 77.00% | 0.00 hPa
  • 21-06-2018 12:00:00 | 15.80°C | Noroeste |4.00 km/h | 85.00% | 0.00 hPa
  • 21-06-2018 11:00:00 | 14.10°C | Noroeste |3.00 km/h | 89.00% | 0.00 hPa
  • 21-06-2018 10:00:00 | 13.60°C | Noroeste |2.00 km/h | 91.00% | 0.00 hPa
  • 21-06-2018 09:00:00 | 13.20°C | Noroeste |4.00 km/h | 92.00% | 0.00 hPa
  • 21-06-2018 08:00:00 | 12.80°C | Noroeste |4.00 km/h | 90.00% | 0.00 hPa
  • 21-06-2018 07:00:00 | 14.00°C | Sudoeste |4.00 km/h | 65.00% | 0.00 hPa
  • 21-06-2018 06:00:00 | 14.60°C | Sur |13.00 km/h | 68.00% | 0.00 hPa
  • 21-06-2018 05:00:00 | 14.00°C | Sur |22.00 km/h | 76.00% | 0.00 hPa
  • 21-06-2018 04:00:00 | 15.30°C | Sur |12.00 km/h | 68.00% | 0.00 hPa
  • 21-06-2018 03:00:00 | 14.60°C | Sudoeste |8.00 km/h | 75.00% | 0.00 hPa
  • 21-06-2018 02:00:00 | 14.60°C | Calma |0.00 km/h | 79.00% | 0.00 hPa
  • 21-06-2018 01:00:00 | 14.80°C | Oeste |3.00 km/h | 79.00% | 0.00 hPa
  • 21-06-2018 00:00:00 | 14.30°C | Sur |3.00 km/h | 82.00% | 0.00 hPa
  • 20-06-2018 23:00:00 | 15.20°C | Calma |0.00 km/h | 85.00% | 0.00 hPa